Time;durP1;ratioP1;P1;durP2;ratioP2;P2;SDS_P1;SDS_P2;PMS_P1;PMS_P2;Temp;Humidity;BMP_temperature;BMP_pressure;BME280_temperature;BME280_humidity;BME280_pressure;Samples;Min_cycle;Max_cycle;Signal;HPM_P1;HPM_P2
2022/07/18 00:01:25;;;;;;;6.95;2.63;;;;;;;18.10;69.75;102328.47;5170199;27;20120;-52
2022/07/18 00:03:53;;;;;;;8.80;3.10;;;;;;;18.05;69.97;102325.28;5170755;27;20482;-54
2022/07/18 00:06:21;;;;;;;7.53;3.13;;;;;;;18.08;69.57;102322.41;5175180;27;20516;-53
2022/07/18 00:08:49;;;;;;;5.97;2.92;;;;;;;17.93;70.04;102316.41;5175969;27;20034;-58
2022/07/18 00:11:17;;;;;;;8.85;3.42;;;;;;;17.83;70.24;102318.88;5173053;27;20453;-55
2022/07/18 00:13:45;;;;;;;7.00;3.10;;;;;;;17.81;70.17;102319.94;5177003;27;20046;-55
2022/07/18 00:16:14;;;;;;;7.50;3.20;;;;;;;17.83;70.19;102325.97;5177183;27;20030;-52
2022/07/18 00:18:43;;;;;;;6.88;2.90;;;;;;;17.79;70.53;102317.34;5176432;27;20496;-50
2022/07/18 00:21:12;;;;;;;9.55;3.28;;;;;;;17.81;70.42;102317.28;5173928;27;20713;-55
2022/07/18 00:23:39;;;;;;;8.18;3.35;;;;;;;17.71;71.17;102317.94;5176606;27;20650;-55
2022/07/18 00:26:07;;;;;;;9.07;2.90;;;;;;;17.68;71.59;102322.63;5176998;27;20545;-54
2022/07/18 00:28:36;;;;;;;7.53;3.38;;;;;;;17.79;70.31;102316.50;5175804;27;20034;-51
2022/07/18 00:31:04;;;;;;;6.55;3.10;;;;;;;17.69;71.11;102319.00;5157901;27;20062;-51
2022/07/18 00:33:32;;;;;;;6.90;2.92;;;;;;;17.62;71.91;102315.94;5177103;27;20038;-54
2022/07/18 00:36:02;;;;;;;7.45;3.08;;;;;;;17.68;71.65;102314.63;5176321;27;20458;-58
2022/07/18 00:38:30;;;;;;;6.82;3.10;;;;;;;17.63;72.02;102312.31;5157705;27;20600;-57
2022/07/18 00:40:58;;;;;;;6.30;3.05;;;;;;;17.52;72.90;102307.78;5176310;27;20050;-53
2022/07/18 00:43:26;;;;;;;7.03;2.80;;;;;;;17.58;72.64;102309.97;5175833;27;20058;-54
2022/07/18 00:45:54;;;;;;;6.15;2.85;;;;;;;17.48;73.07;102303.63;5174173;27;20042;-54
2022/07/18 00:48:22;;;;;;;8.32;3.33;;;;;;;17.45;72.88;102301.19;5174593;27;20046;-53
2022/07/18 00:50:51;;;;;;;7.68;3.00;;;;;;;17.40;73.33;102304.16;5174240;27;20047;-56
2022/07/18 00:53:20;;;;;;;8.55;3.50;;;;;;;17.46;73.59;102296.72;5176431;27;20188;-55
2022/07/18 00:55:48;;;;;;;6.32;2.75;;;;;;;17.40;74.07;102292.69;5176555;27;20050;-53
2022/07/18 00:58:16;;;;;;;6.60;2.90;;;;;;;17.49;74.17;102296.50;5176088;27;20042;-58
2022/07/18 01:03:30;;;;;;;5.88;3.00;;;;;;;17.35;74.82;102286.84;5175643;27;20038;-54
2022/07/18 01:05:58;;;;;;;7.32;3.00;;;;;;;17.29;75.66;102285.47;5151549;27;20045;-58
2022/07/18 01:08:29;;;;;;;6.65;2.80;;;;;;;17.18;75.49;102286.22;5154754;27;20050;-57
2022/07/18 01:10:57;;;;;;;7.57;3.03;;;;;;;17.14;75.52;102290.06;5175809;27;20392;-53
2022/07/18 01:13:25;;;;;;;7.50;3.58;;;;;;;17.18;75.86;102283.56;5175626;27;20089;-54
2022/07/18 01:15:54;;;;;;;9.15;3.70;;;;;;;17.09;76.02;102284.22;5175753;27;20070;-54
2022/07/18 01:18:22;;;;;;;8.65;3.33;;;;;;;17.04;76.59;102286.34;5175381;27;20051;-57
2022/07/18 01:20:51;;;;;;;8.10;3.35;;;;;;;17.03;77.34;102292.63;5175759;27;20062;-56
2022/07/18 01:23:20;;;;;;;8.75;3.38;;;;;;;17.08;77.47;102284.31;5172079;27;20041;-58
2022/07/18 01:25:48;;;;;;;8.05;3.13;;;;;;;17.15;77.20;102291.78;5173168;27;20148;-58
2022/07/18 01:28:16;;;;;;;8.02;3.47;;;;;;;16.95;78.02;102285.19;5172002;27;20492;-54
2022/07/18 01:30:44;;;;;;;9.32;3.40;;;;;;;16.87;78.52;102285.69;5174889;27;20091;-54
2022/07/18 01:33:12;;;;;;;9.10;3.83;;;;;;;16.88;79.07;102287.38;5175600;27;20724;-56
2022/07/18 01:35:40;;;;;;;8.35;3.58;;;;;;;16.90;79.12;102279.34;5175322;27;20094;-52
2022/07/18 01:38:09;;;;;;;7.47;3.25;;;;;;;16.93;78.86;102276.47;5174466;27;20107;-57
2022/07/18 01:40:37;;;;;;;8.07;3.25;;;;;;;16.95;79.43;102273.72;5171363;27;20400;-58
2022/07/18 01:43:06;;;;;;;8.85;3.80;;;;;;;16.78;79.09;102269.53;5174060;27;20445;-50
2022/07/18 01:45:35;;;;;;;10.32;3.50;;;;;;;16.74;79.66;102276.84;5175237;27;20044;-53
2022/07/18 01:48:03;;;;;;;8.63;3.47;;;;;;;16.66;81.52;102280.06;5172057;27;20042;-52
2022/07/18 01:50:31;;;;;;;7.68;3.30;;;;;;;16.73;80.75;102276.00;5173812;27;20098;-51
2022/07/18 01:52:59;;;;;;;9.23;3.33;;;;;;;16.71;80.91;102280.59;5173482;27;20042;-58
2022/07/18 01:55:29;;;;;;;7.35;3.53;;;;;;;16.62;82.12;102280.34;5147255;27;20042;-55
2022/07/18 01:57:57;;;;;;;7.75;3.33;;;;;;;16.61;82.64;102274.19;5174246;27;20050;-50
2022/07/18 02:00:25;;;;;;;9.35;3.63;;;;;;;16.62;81.74;102275.91;5175144;27;20088;-57
2022/07/18 02:02:53;;;;;;;6.78;3.15;;;;;;;16.57;82.08;102278.03;5172045;27;20176;-58
2022/07/18 02:05:21;;;;;;;7.82;3.50;;;;;;;16.43;82.10;102270.13;5172629;27;20030;-54
2022/07/18 02:07:49;;;;;;;7.25;3.20;;;;;;;16.38;82.80;102268.63;5173467;27;20049;-56
2022/07/18 02:10:19;;;;;;;7.50;3.38;;;;;;;16.35;82.88;102265.34;5171871;27;20141;-52
2022/07/18 02:12:49;;;;;;;7.40;3.25;;;;;;;16.28;82.07;102258.72;5171708;27;20122;-58
2022/07/18 02:15:17;;;;;;;8.55;3.70;;;;;;;16.30;81.38;102260.34;5174799;27;20038;-55
2022/07/18 02:17:45;;;;;;;8.70;4.03;;;;;;;16.31;81.54;102258.53;5174678;27;20026;-56
2022/07/18 02:20:15;;;;;;;9.45;3.67;;;;;;;16.26;82.72;102255.34;5155673;27;20127;-54
2022/07/18 02:22:43;;;;;;;9.93;3.65;;;;;;;16.20;83.34;102256.63;5174309;27;20046;-54
2022/07/18 02:25:12;;;;;;;8.63;3.92;;;;;;;16.18;84.41;102253.19;5174593;27;20038;-58
2022/07/18 02:27:41;;;;;;;9.20;3.63;;;;;;;16.14;84.28;102249.91;5174663;27;20597;-58
2022/07/18 02:30:11;;;;;;;7.25;3.30;;;;;;;16.08;83.92;102244.16;5155854;27;20060;-53
2022/07/18 02:32:39;;;;;;;7.38;4.05;;;;;;;16.04;84.78;102249.66;5174719;27;20387;-55
2022/07/18 02:35:09;;;;;;;10.13;3.65;;;;;;;16.04;84.58;102244.34;5174039;27;20038;-53
2022/07/18 02:37:40;;;;;;;8.13;3.60;;;;;;;16.05;84.58;102251.34;5174842;27;20116;-53
2022/07/18 02:40:10;;;;;;;9.00;3.70;;;;;;;16.08;84.07;102252.97;5174035;27;20564;-58
2022/07/18 02:42:41;;;;;;;8.32;3.85;;;;;;;16.15;83.69;102248.94;5171960;27;20042;-58
2022/07/18 02:45:11;;;;;;;8.18;3.78;;;;;;;16.11;83.21;102243.94;5173961;27;20117;-58
2022/07/18 02:47:39;;;;;;;10.50;3.95;;;;;;;16.05;84.32;102246.06;5174033;27;20038;-57
2022/07/18 02:50:08;;;;;;;8.15;4.10;;;;;;;15.97;84.04;102247.53;5173931;27;20476;-57
2022/07/18 02:52:37;;;;;;;10.38;3.67;;;;;;;15.92;84.53;102244.31;5174154;27;20121;-58
2022/07/18 02:55:06;;;;;;;7.72;3.45;;;;;;;15.96;84.35;102245.81;5172050;27;20038;-58
2022/07/18 02:57:37;;;;;;;7.50;3.55;;;;;;;16.01;84.28;102246.38;5169895;27;20042;-57
2022/07/18 03:00:08;;;;;;;8.00;3.70;;;;;;;15.95;84.69;102252.94;5172245;27;20560;-57
2022/07/18 03:02:39;;;;;;;8.63;3.70;;;;;;;15.87;85.82;102253.44;5173928;27;20046;-53
2022/07/18 03:05:08;;;;;;;8.13;4.13;;;;;;;15.86;85.86;102256.19;5173987;27;20046;-58
2022/07/18 03:07:36;;;;;;;9.63;3.90;;;;;;;15.75;87.26;102246.25;5153536;27;20038;-58
2022/07/18 03:10:05;;;;;;;6.95;3.88;;;;;;;15.81;87.20;102250.31;5173626;27;20046;-57
2022/07/18 03:12:33;;;;;;;9.27;4.30;;;;;;;15.78;87.48;102242.53;5171472;27;20085;-58
2022/07/18 03:15:01;;;;;;;7.70;3.58;;;;;;;15.72;87.44;102239.31;5170221;27;20038;-49
2022/07/18 03:17:29;;;;;;;6.13;3.42;;;;;;;15.80;86.87;102244.19;5154428;27;20102;-52
2022/07/18 03:19:59;;;;;;;8.23;3.45;;;;;;;15.74;87.74;102239.22;5173165;27;20038;-52
2022/07/18 03:22:27;;;;;;;8.20;3.38;;;;;;;15.84;86.06;102244.81;5171088;27;20073;-55
2022/07/18 03:24:55;;;;;;;8.63;4.13;;;;;;;15.84;85.72;102239.50;5172675;27;20533;-58
2022/07/18 03:27:23;;;;;;;8.45;3.60;;;;;;;15.78;86.10;102245.19;5173711;27;20079;-58
2022/07/18 03:29:51;;;;;;;7.75;3.75;;;;;;;15.70;86.66;102241.22;5173934;27;20067;-57
2022/07/18 03:32:19;;;;;;;7.72;4.03;;;;;;;15.63;87.23;102237.28;5172773;27;20057;-55
2022/07/18 03:34:47;;;;;;;10.30;4.35;;;;;;;15.63;86.41;102231.97;5171037;27;20086;-58
2022/07/18 03:37:17;;;;;;;8.63;3.90;;;;;;;15.60;86.62;102224.22;5171391;27;20038;-54
2022/07/18 03:39:45;;;;;;;8.45;4.28;;;;;;;15.61;86.96;102222.41;5173071;27;20048;-57
2022/07/18 03:42:13;;;;;;;8.75;3.72;;;;;;;15.54;87.02;102220.16;5165971;27;20038;-58
2022/07/18 03:44:41;;;;;;;9.02;4.22;;;;;;;15.50;86.96;102218.66;5178053;27;20038;-51
2022/07/18 03:47:09;;;;;;;8.80;3.83;;;;;;;15.45;87.82;102214.63;5177662;27;20034;-57
2022/07/18 03:49:37;;;;;;;8.15;3.80;;;;;;;15.48;87.11;102220.53;5177570;27;20046;-59
2022/07/18 03:52:06;;;;;;;7.03;3.63;;;;;;;15.53;87.83;102220.28;5175663;27;20038;-54
2022/07/18 03:54:35;;;;;;;10.98;4.05;;;;;;;15.48;87.56;102215.25;5174844;27;20573;-59
2022/07/18 03:57:03;;;;;;;9.40;4.63;;;;;;;15.42;87.07;102213.00;5174592;27;20566;-57
2022/07/18 03:59:33;;;;;;;9.20;4.50;;;;;;;15.41;87.96;102219.25;5177793;27;20071;-58
2022/07/18 04:02:01;;;;;;;8.85;4.75;;;;;;;15.48;88.06;102217.06;5177110;27;20077;-57
2022/07/18 04:04:29;;;;;;;9.43;4.40;;;;;;;15.43;88.91;102212.03;5175109;27;20049;-57
2022/07/18 04:06:59;;;;;;;7.40;3.90;;;;;;;15.43;88.90;102211.19;5177164;27;20042;-58
2022/07/18 04:09:27;;;;;;;9.65;4.18;;;;;;;15.46;89.24;102217.16;5175122;27;20042;-58
2022/07/18 04:11:56;;;;;;;8.18;3.75;;;;;;;15.45;89.04;102220.75;5173366;27;20429;-57
2022/07/18 04:14:24;;;;;;;8.43;4.10;;;;;;;15.44;88.38;102220.84;5177322;27;20145;-57
2022/07/18 04:16:52;;;;;;;8.48;3.97;;;;;;;15.47;87.50;102215.34;5177342;27;20046;-54
2022/07/18 04:19:23;;;;;;;8.68;3.78;;;;;;;15.47;88.42;102207.41;5176970;27;20373;-57
2022/07/18 04:21:51;;;;;;;8.88;4.03;;;;;;;15.53;87.73;102209.66;5176849;27;20038;-50
2022/07/18 04:24:19;;;;;;;6.95;3.50;;;;;;;15.48;87.54;102209.94;5174202;27;20067;-49
2022/07/18 04:26:47;;;;;;;9.18;3.58;;;;;;;15.60;87.03;102205.66;5176865;27;20411;-51
2022/07/18 04:29:16;;;;;;;9.48;3.67;;;;;;;15.62;87.50;102201.09;5174994;27;20125;-52
2022/07/18 04:31:44;;;;;;;8.13;4.22;;;;;;;15.68;87.75;102199.88;5171980;27;20739;-59
2022/07/18 04:34:12;;;;;;;9.32;3.90;;;;;;;15.65;87.55;102203.56;5177104;27;20477;-57
2022/07/18 04:36:40;;;;;;;8.07;3.80;;;;;;;15.61;88.72;102199.41;5177670;27;20121;-54
2022/07/18 04:39:09;;;;;;;10.23;4.00;;;;;;;15.63;88.85;102201.97;5174736;27;20045;-53
2022/07/18 04:41:37;;;;;;;8.63;4.40;;;;;;;15.61;90.07;102199.41;5173968;27;20085;-57
2022/07/18 04:44:05;;;;;;;9.10;4.68;;;;;;;15.63;89.38;102197.50;5176142;27;20125;-58
2022/07/18 04:46:35;;;;;;;9.98;4.95;;;;;;;15.67;89.23;102192.84;5176251;27;20090;-51
2022/07/18 04:49:04;;;;;;;9.80;5.13;;;;;;;15.68;87.60;102198.06;5176066;27;20125;-55
2022/07/18 04:51:32;;;;;;;11.60;5.82;;;;;;;15.69;91.22;102190.94;5175443;27;20041;-55
2022/07/18 04:54:00;;;;;;;9.55;5.05;;;;;;;15.72;91.57;102190.75;5173356;27;20046;-50
2022/07/18 04:56:28;;;;;;;10.98;5.50;;;;;;;15.76;93.08;102194.03;5174273;27;20049;-55
2022/07/18 04:58:57;;;;;;;14.45;6.75;;;;;;;15.78;90.45;102192.97;5176226;27;20106;-54
2022/07/18 05:01:25;;;;;;;10.63;5.80;;;;;;;15.85;89.12;102189.00;5175859;27;20042;-54
2022/07/18 05:03:54;;;;;;;11.23;6.38;;;;;;;15.90;89.98;102178.09;5175904;27;20038;-53
2022/07/18 05:06:22;;;;;;;13.88;6.50;;;;;;;15.91;87.00;102186.91;5176096;27;20069;-52
2022/07/18 05:08:51;;;;;;;14.52;6.40;;;;;;;15.93;85.02;102183.19;5176064;27;20038;-58
2022/07/18 05:11:19;;;;;;;12.65;6.85;;;;;;;15.95;85.36;102186.59;5175786;27;20042;-53
2022/07/18 05:13:47;;;;;;;14.82;6.68;;;;;;;16.01;83.49;102198.59;5175890;27;20433;-55
2022/07/18 05:16:15;;;;;;;12.15;5.95;;;;;;;16.06;81.80;102196.50;5172975;27;20126;-57
2022/07/18 05:18:43;;;;;;;11.00;5.75;;;;;;;16.13;84.42;102183.66;5173653;27;20381;-58
2022/07/18 05:21:13;;;;;;;10.50;5.75;;;;;;;16.23;84.30;102182.09;5174447;27;20103;-57
2022/07/18 05:23:41;;;;;;;11.85;6.18;;;;;;;16.30;83.11;102187.81;5173474;27;20057;-58
2022/07/18 05:26:09;;;;;;;12.20;5.68;;;;;;;16.39;78.88;102187.19;5155343;27;20074;-57
2022/07/18 05:28:37;;;;;;;9.13;5.25;;;;;;;16.50;83.72;102197.09;5175584;27;20099;-58
2022/07/18 05:31:05;;;;;;;11.50;5.65;;;;;;;16.57;83.37;102198.34;5175318;27;20057;-58
2022/07/18 05:33:33;;;;;;;12.52;5.68;;;;;;;16.66;83.02;102196.84;5175569;27;20038;-54
2022/07/18 05:36:04;;;;;;;12.75;6.05;;;;;;;16.75;83.26;102203.34;5175570;27;20049;-55
2022/07/18 05:38:34;;;;;;;11.18;5.90;;;;;;;16.79;81.63;102202.16;5175052;27;20038;-54
2022/07/18 05:41:02;;;;;;;12.75;5.63;;;;;;;16.84;79.62;102203.53;5134951;27;1145025;-54
2022/07/18 05:43:30;;;;;;;11.60;5.55;;;;;;;16.90;79.42;102205.78;5153997;27;20046;-54
2022/07/18 05:45:58;;;;;;;12.85;5.82;;;;;;;16.96;78.55;102204.53;5169670;27;20166;-59
2022/07/18 05:48:26;;;;;;;12.32;5.90;;;;;;;17.02;78.01;102198.75;5176563;27;20050;-54
2022/07/18 05:50:55;;;;;;;9.45;5.32;;;;;;;17.05;78.83;102193.22;5166604;27;20031;-55
2022/07/18 05:53:23;;;;;;;13.30;5.32;;;;;;;17.12;80.10;102198.09;5168929;27;20031;-53
2022/07/18 05:55:52;;;;;;;11.40;5.32;;;;;;;17.18;80.51;102195.03;5171334;27;20048;-55
2022/07/18 05:58:20;;;;;;;11.85;6.05;;;;;;;17.21;79.46;102192.13;5172887;27;20042;-52
2022/07/18 06:00:48;;;;;;;12.63;5.57;;;;;;;17.30;78.57;102198.56;5174963;27;20089;-54
2022/07/18 06:03:16;;;;;;;12.50;5.70;;;;;;;17.38;77.82;102191.75;5174204;27;20038;-58
2022/07/18 06:05:44;;;;;;;12.50;5.68;;;;;;;17.51;74.91;102193.53;5175249;27;20041;-57
2022/07/18 06:08:12;;;;;;;17.45;5.78;;;;;;;17.63;74.65;102186.44;5174869;27;20077;-58
2022/07/18 06:10:41;;;;;;;10.88;5.57;;;;;;;17.73;74.17;102182.13;5172543;27;20034;-58
2022/07/18 06:13:15;;;;;;;13.32;6.63;;;;;;;17.86;73.52;102182.91;5175268;27;20358;-58
2022/07/18 06:15:43;;;;;;;10.23;5.10;;;;;;;18.00;71.40;102175.75;5174879;27;20057;-54
2022/07/18 06:18:11;;;;;;;16.08;6.50;;;;;;;18.17;69.04;102166.47;5175174;27;20497;-54
2022/07/18 06:20:39;;;;;;;13.85;5.57;;;;;;;18.26;70.47;102165.75;5174774;27;20034;-55
2022/07/18 06:23:07;;;;;;;16.75;6.00;;;;;;;18.35;68.73;102162.38;5174642;27;20125;-58
2022/07/18 06:25:35;;;;;;;10.35;5.68;;;;;;;18.52;70.67;102160.22;5171640;27;20477;-59
2022/07/18 06:28:03;;;;;;;13.35;5.95;;;;;;;18.62;70.49;102155.84;5173648;27;20057;-57
2022/07/18 06:30:33;;;;;;;10.65;6.55;;;;;;;18.70;68.14;102150.75;5175701;27;20061;-52
2022/07/18 06:33:03;;;;;;;17.60;6.70;;;;;;;18.87;71.20;102153.91;5175229;27;20042;-57
2022/07/18 06:35:31;;;;;;;11.93;6.10;;;;;;;19.03;70.66;102157.09;5175154;27;20046;-54
2022/07/18 06:37:59;;;;;;;12.38;5.93;;;;;;;19.13;68.86;102159.84;5154656;27;20121;-57
2022/07/18 06:40:27;;;;;;;11.90;6.25;;;;;;;19.33;68.05;102160.03;5169327;27;20058;-50
2022/07/18 06:42:55;;;;;;;9.73;5.15;;;;;;;19.49;68.75;102156.97;5155661;27;20062;-58
2022/07/18 06:45:23;;;;;;;11.98;5.18;;;;;;;19.70;65.84;102154.31;5153415;27;20050;-53
2022/07/18 06:47:53;;;;;;;12.25;5.32;;;;;;;19.90;64.91;102147.34;5154259;27;20124;-51
2022/07/18 06:50:21;;;;;;;10.95;4.72;;;;;;;19.99;64.24;102153.72;5151623;27;20046;-50
2022/07/18 06:52:49;;;;;;;9.10;4.50;;;;;;;20.17;65.18;102148.66;5152519;27;20043;-52
2022/07/18 06:55:17;;;;;;;11.27;4.10;;;;;;;20.35;65.57;102152.38;5154242;27;20456;-56
2022/07/18 06:57:45;;;;;;;11.00;3.80;;;;;;;20.54;61.55;102156.97;5173780;27;20445;-51
2022/07/18 07:00:15;;;;;;;8.77;3.83;;;;;;;20.74;63.73;102155.28;5173589;27;20050;-57
2022/07/18 07:02:45;;;;;;;7.50;3.58;;;;;;;20.96;64.40;102157.88;5172836;27;20046;-58
2022/07/18 07:05:16;;;;;;;9.50;3.70;;;;;;;21.07;59.76;102163.13;5170100;27;20129;-54
2022/07/18 07:07:45;;;;;;;10.50;3.72;;;;;;;21.27;61.70;102156.81;5173192;27;20053;-58
2022/07/18 07:10:16;;;;;;;7.97;2.75;;;;;;;21.58;62.38;102153.19;5174090;27;20045;-53
2022/07/18 07:12:46;;;;;;;10.02;3.38;;;;;;;21.81;58.75;102152.91;5173306;27;20041;-53
2022/07/18 07:15:18;;;;;;;8.20;3.35;;;;;;;22.01;60.21;102154.56;5173282;27;20042;-52
2022/07/18 07:17:46;;;;;;;8.35;3.10;;;;;;;22.17;57.31;102142.41;5173538;27;20050;-53
2022/07/18 07:20:18;;;;;;;9.02;3.00;;;;;;;22.38;57.41;102153.78;5173735;27;20124;-54
2022/07/18 07:22:48;;;;;;;9.48;3.50;;;;;;;22.55;56.60;102146.84;5173640;27;20403;-54
2022/07/18 07:25:17;;;;;;;8.32;2.80;;;;;;;22.81;57.36;102145.28;5173405;27;20039;-51
2022/07/18 07:27:45;;;;;;;9.13;2.83;;;;;;;23.04;55.86;102141.22;5173544;27;20114;-53
2022/07/18 07:30:15;;;;;;;7.22;2.40;;;;;;;23.32;55.58;102149.25;5173491;27;20098;-57
2022/07/18 07:32:45;;;;;;;8.45;2.60;;;;;;;23.60;54.62;102143.78;5171977;27;20484;-57
2022/07/18 07:35:16;;;;;;;6.97;2.45;;;;;;;23.71;50.71;102145.38;5170140;27;20783;-58
2022/07/18 07:37:46;;;;;;;4.97;2.00;;;;;;;23.93;50.16;102146.78;5173330;27;20050;-58
2022/07/18 07:40:15;;;;;;;6.68;2.10;;;;;;;24.16;49.67;102139.03;5170927;27;20106;-57
2022/07/18 07:42:44;;;;;;;8.57;2.30;;;;;;;24.36;49.39;102130.75;5173471;27;20035;-57
2022/07/18 07:45:13;;;;;;;7.63;2.67;;;;;;;24.64;48.81;102129.53;5172891;27;20048;-58
2022/07/18 07:47:42;;;;;;;8.15;2.33;;;;;;;24.76;46.17;102122.03;5173422;27;20086;-58
2022/07/18 07:50:11;;;;;;;7.85;2.22;;;;;;;25.03;47.84;102138.91;5173121;27;20516;-58
2022/07/18 07:52:41;;;;;;;8.00;1.90;;;;;;;25.26;45.14;102140.97;5168305;27;20034;-58
2022/07/18 07:55:09;;;;;;;6.70;1.85;;;;;;;25.41;45.79;102125.88;5170750;27;20050;-58
2022/07/18 07:57:37;;;;;;;6.03;2.10;;;;;;;25.38;44.51;102131.59;5173724;27;20492;-57
2022/07/18 08:00:08;;;;;;;5.40;1.90;;;;;;;25.60;43.50;102130.09;5173976;27;20050;-53
2022/07/18 08:02:36;;;;;;;5.82;2.00;;;;;;;25.87;46.15;102130.75;5155749;27;20057;-50
2022/07/18 08:05:05;;;;;;;8.07;2.00;;;;;;;26.07;43.39;102130.41;5173367;27;20461;-58
2022/07/18 08:07:33;;;;;;;7.82;2.03;;;;;;;26.23;43.82;102130.38;5171690;27;20038;-58
2022/07/18 08:10:03;;;;;;;5.70;1.80;;;;;;;26.44;43.70;102132.50;5171832;27;20049;-52
2022/07/18 08:12:31;;;;;;;5.78;1.90;;;;;;;26.66;43.27;102130.88;5174246;27;20053;-59
2022/07/18 08:14:59;;;;;;;5.10;2.00;;;;;;;26.78;41.66;102130.53;5174276;27;20073;-57
2022/07/18 08:17:27;;;;;;;5.88;1.77;;;;;;;26.95;41.28;102134.78;5170488;27;20069;-52
2022/07/18 08:19:55;;;;;;;7.28;2.10;;;;;;;27.19;41.65;102132.09;5171012;27;20430;-57
2022/07/18 08:22:24;;;;;;;6.30;1.90;;;;;;;27.45;41.43;102132.63;5172759;27;20145;-54
2022/07/18 08:24:52;;;;;;;7.85;1.88;;;;;;;27.61;39.41;102128.97;5172835;27;20488;-58
2022/07/18 08:27:22;;;;;;;7.18;2.13;;;;;;;27.76;39.56;102125.44;5175468;27;20733;-58
2022/07/18 08:29:50;;;;;;;6.18;2.03;;;;;;;27.87;38.57;102129.53;5164881;27;20057;-57
2022/07/18 08:32:35;;;;;;;6.15;2.00;;;;;;;28.02;36.93;102121.50;5155851;27;20047;-56
2022/07/18 08:35:05;;;;;;;5.35;1.70;;;;;;;28.22;37.76;102119.06;5154094;27;20062;-50
2022/07/18 08:37:33;;;;;;;3.28;1.60;;;;;;;28.46;36.62;102113.38;5155682;27;20400;-56
2022/07/18 08:40:01;;;;;;;5.65;1.42;;;;;;;28.54;38.18;102108.88;5135476;27;20047;-57
2022/07/18 08:42:34;;;;;;;5.72;1.60;;;;;;;28.77;39.50;102112.31;5170344;27;20042;-57
2022/07/18 08:45:03;;;;;;;5.07;1.60;;;;;;;29.05;37.08;102113.44;5177365;27;20038;-57
2022/07/18 08:47:31;;;;;;;4.88;1.70;;;;;;;29.16;35.71;102121.91;5176122;27;20142;-57
2022/07/18 08:50:01;;;;;;;5.85;1.70;;;;;;;29.17;35.15;102109.19;5174741;27;20049;-58
2022/07/18 08:52:30;;;;;;;5.35;1.75;;;;;;;29.38;36.01;102102.13;5176915;27;20492;-53
2022/07/18 08:55:18;;;;;;;5.45;1.60;;;;;;;29.60;36.34;102108.31;5160529;27;20533;-57
2022/07/18 08:57:55;;;;;;;6.22;1.60;;;;;;;29.81;34.61;102108.28;5153103;27;20043;-56
2022/07/18 09:00:24;;;;;;;5.38;1.58;;;;;;;29.99;33.60;102099.66;5154791;27;20441;-57
2022/07/18 09:02:59;;;;;;;6.40;1.50;;;;;;;30.08;33.64;102099.50;5156735;27;20057;-56
2022/07/18 09:05:28;;;;;;;5.78;1.60;;;;;;;30.04;33.58;102107.22;5156277;27;20043;-55
2022/07/18 09:08:12;;;;;;;4.07;1.45;;;;;;;30.42;33.92;102104.06;5170613;27;20458;-58
2022/07/18 09:10:59;;;;;;;3.13;1.42;;;;;;;30.55;33.39;102107.91;5154242;27;20046;-54
2022/07/18 09:13:38;;;;;;;8.10;1.60;;;;;;;30.75;32.83;102111.50;5176304;27;20106;-56
2022/07/18 09:16:09;;;;;;;6.55;1.85;;;;;;;30.94;32.37;102107.19;5174039;27;20038;-54
2022/07/18 09:18:39;;;;;;;7.10;1.40;;;;;;;31.02;31.32;102104.28;5156236;27;20053;-55
2022/07/18 09:21:08;;;;;;;5.35;1.60;;;;;;;31.04;30.18;102106.81;5173811;27;20046;-56
2022/07/18 09:23:39;;;;;;;5.03;1.38;;;;;;;30.92;30.03;102100.28;5156067;27;20124;-55
2022/07/18 09:26:08;;;;;;;6.70;1.65;;;;;;;31.14;29.89;102109.09;5156096;27;20045;-56
2022/07/18 09:28:48;;;;;;;6.75;1.77;;;;;;;31.31;30.17;102113.09;5155250;27;20047;-56
2022/07/18 09:31:37;;;;;;;5.75;1.67;;;;;;;31.27;28.45;102108.28;5153965;27;20095;-53
2022/07/18 09:34:06;;;;;;;6.28;1.75;;;;;;;31.49;29.57;102115.19;5163038;27;20352;-56
2022/07/18 09:36:36;;;;;;;7.68;1.90;;;;;;;31.45;29.07;102113.09;5176902;27;20559;-56
2022/07/18 09:39:19;;;;;;;5.68;1.48;;;;;;;31.94;29.18;102100.94;5175068;27;20065;-56
2022/07/18 09:41:47;;;;;;;;;;;;;;;32.31;26.72;102095.81;5177295;27;20065;-55
2022/07/18 09:44:18;;;;;;;3.83;1.40;;;;;;;32.63;26.57;102092.34;5173109;27;19930;-56
2022/07/18 09:47:00;;;;;;;6.38;1.55;;;;;;;32.78;26.16;102095.63;5173037;27;20077;-56
2022/07/18 09:49:31;;;;;;;3.55;1.40;;;;;;;33.02;24.85;102093.16;5175186;27;20070;-55
2022/07/18 09:52:06;;;;;;;4.55;1.65;;;;;;;33.07;25.60;102089.78;5175215;27;20093;-56
2022/07/18 09:54:39;;;;;;;3.97;1.35;;;;;;;33.20;24.91;102082.34;5175395;27;20049;-54
2022/07/18 09:57:08;;;;;;;4.00;1.67;;;;;;;33.59;24.39;102086.84;5172854;27;20038;-55
2022/07/18 09:59:37;;;;;;;6.65;1.50;;;;;;;33.80;24.20;102088.34;5172192;27;20557;-55
2022/07/18 10:02:12;;;;;;;5.55;1.50;;;;;;;33.84;24.71;102079.47;5172846;27;20113;-54
2022/07/18 10:04:40;;;;;;;6.93;2.00;;;;;;;33.88;24.55;102084.47;5175424;27;20040;-55
2022/07/18 10:07:10;;;;;;;3.70;1.45;;;;;;;33.62;24.11;102091.84;5157343;27;20054;-56
2022/07/18 10:09:40;;;;;;;4.80;1.60;;;;;;;33.41;24.97;102090.38;5175944;27;20385;-56
2022/07/18 10:12:08;;;;;;;6.93;1.75;;;;;;;33.39;23.76;102079.66;5175937;27;20075;-57
2022/07/18 10:14:39;;;;;;;5.15;1.50;;;;;;;33.13;24.24;102080.72;5172232;27;20050;-56
2022/07/18 10:17:07;;;;;;;6.60;1.60;;;;;;;32.95;25.17;102079.56;5172966;27;20049;-56
2022/07/18 10:19:35;;;;;;;6.43;1.58;;;;;;;32.68;26.15;102078.88;5164282;27;20073;-56
2022/07/18 10:22:04;;;;;;;8.52;1.90;;;;;;;32.63;26.39;102079.56;5175695;27;20050;-56
2022/07/18 10:24:33;;;;;;;6.03;1.70;;;;;;;32.56;25.84;102083.34;5175498;27;20113;-56
2022/07/18 10:27:16;;;;;;;3.97;1.40;;;;;;;32.78;26.74;102079.28;5174892;27;20077;-56
2022/07/18 10:30:29;;;;;;;5.00;1.42;;;;;;;33.13;26.21;102081.56;5172797;27;20074;-56
2022/07/18 10:32:58;;;;;;;3.22;1.38;;;;;;;32.86;23.83;102079.03;5069208;28;20040;-56
2022/07/18 10:36:01;;;;;;;6.93;1.70;;;;;;;33.20;25.39;102082.34;5064793;28;20041;-54
2022/07/18 10:38:38;;;;;;;5.90;1.67;;;;;;;33.33;25.62;102086.03;5137798;27;20050;-56
2022/07/18 10:41:09;;;;;;;4.28;1.40;;;;;;;33.86;25.49;102074.63;5154381;27;20042;-57
2022/07/18 10:43:45;;;;;;;3.88;1.75;;;;;;;34.01;24.86;102070.69;5155793;27;20035;-56
2022/07/18 10:46:15;;;;;;;7.93;2.17;;;;;;;33.91;23.79;102073.09;5163554;27;20365;-55
2022/07/18 10:48:55;;;;;;;5.50;1.90;;;;;;;33.89;23.47;102072.50;5168111;27;20046;-56
2022/07/18 10:51:31;;;;;;;5.72;1.60;;;;;;;33.92;24.98;102067.41;5173309;27;20065;-56
2022/07/18 10:54:09;;;;;;;6.18;2.00;;;;;;;33.93;23.82;102071.00;5172073;27;20081;-56
2022/07/18 10:57:08;;;;;;;6.25;1.40;;;;;;;34.25;24.14;102070.81;5171415;27;20050;-55
2022/07/18 10:59:40;;;;;;;6.53;1.58;;;;;;;34.52;24.63;102065.84;5154086;27;20525;-55
2022/07/18 11:02:09;;;;;;;4.95;1.58;;;;;;;34.73;23.56;102064.50;5173706;27;20034;-55
2022/07/18 11:04:40;;;;;;;5.00;1.70;;;;;;;34.70;23.57;102068.53;5173635;27;20061;-55
2022/07/18 11:07:13;;;;;;;4.35;1.40;;;;;;;34.97;23.30;102067.31;5170451;27;20057;-55
2022/07/18 11:09:44;;;;;;;4.75;1.63;;;;;;;35.07;23.05;102067.59;5171017;27;20046;-55
2022/07/18 11:12:31;;;;;;;3.60;1.30;;;;;;;34.99;22.15;102063.28;5172510;27;20461;-56
2022/07/18 11:15:13;;;;;;;4.25;1.52;;;;;;;35.33;22.65;102065.50;5173523;27;20476;-56
2022/07/18 11:18:03;;;;;;;6.35;1.55;;;;;;;35.73;22.31;102067.47;5170464;27;20107;-54
2022/07/18 11:20:41;;;;;;;3.83;1.40;;;;;;;35.75;20.94;102068.09;5152002;27;20065;-55
2022/07/18 11:23:21;;;;;;;4.88;1.40;;;;;;;35.57;20.79;102060.84;5173883;27;20052;-56
2022/07/18 11:25:51;;;;;;;8.23;1.63;;;;;;;35.80;22.76;102057.22;5173543;27;20038;-56
2022/07/18 11:28:25;;;;;;;6.60;1.40;;;;;;;35.97;21.24;102051.03;5171773;27;20030;-56
2022/07/18 11:31:08;;;;;;;6.75;1.80;;;;;;;35.68;20.66;102054.53;5171216;27;20069;-57
2022/07/18 11:33:40;;;;;;;5.82;1.30;;;;;;;35.81;20.87;102034.28;5170825;27;20050;-54
2022/07/18 11:36:10;;;;;;;3.27;1.40;;;;;;;35.87;21.49;102041.56;5153062;27;20042;-56
2022/07/18 11:38:46;;;;;;;4.97;1.30;;;;;;;36.17;22.20;102037.78;5170580;27;20450;-57
2022/07/18 11:41:15;;;;;;;5.63;1.88;;;;;;;36.52;22.33;102034.06;5172817;27;20050;-57